Delsbo, Sweden

10:39 AM CEST on April 19, 2015 (GMT +0200)
Kilbo | | Change Station
CLOSE
Current Station
Personal Weather Station
Location: Frila, GVLEBORGS LN
Elevation: -10000 ft
Nearby Weather Stations

Elev -10000 ft 61.79 °N, 15.86 °E | Updated 10 minutes ago

Clear
Clear
49.6 °F
Feels Like 46 °F
N
8.0
Wind Variable Wind from West
Gusts 15.0 mph

Today
High -- | Low -- °F
--% Chance of Precip.
Yesterday
High -- | Low -- °F
Precip. -- in
5:19 AM 8:27 PM
New Moon, 0% visible
Pressure 30.04 in
Visibility 6.2 miles
Clouds
Windchill 46 °F
Dew Point 34 °F
Humidity 55%
Rainfall 0.00 in
Snow Depth Not available.
UV 0.0 out of 12
Pollen Not available.
Air Quality Not available.
Flu Activity Not available.
METAR ESNN 190820Z AUTO 31023G40KT 9999 NCD 11/M01 Q1017 R16/CLRD//

More Conditions Fewer Conditions

Pressure 30.04 in
Visibility 6.2 miles
Clouds
Windchill 46 °F
Dew Point 34 °F
Humidity 55%
Rainfall 0.00 in
Snow Depth Not available.
UV 0.0 out of 12
Pollen Not available.
Air Quality Not available.
Flu Activity Not available.
METAR ESNN 190820Z AUTO 31023G40KT 9999 NCD 11/M01 Q1017 R16/CLRD//

More Conditions Fewer Conditions

10-Day Weather Forecast

Almanac

Astronomy

Apr. 19, 2015 Rise Set
Actual Time
Civil Twilight
Nautical Twilight
Astronomical Twilight
Moon
Length of Visible Light
Length of Day
Tomorrow will be .
, % of the Moon is Illuminated

Today's Extremes

Country Highs Country Lows

Community

WunderPhotos

Upload Photos

1,814,723 photos uploaded!

WunderBlogs® & News

Nearby

Air Quality

  Air Quality AQ Index Pollutant
Not available.

Snow Depth

Station Depth Elevation

Earthquake Activity

City Distance Mag. Time & Date
Minimum magnitude displayed is 2.5.

Coastal Water Temperatures

Place Temperature

Stations

Nearby Weather Stations

Station Location Temp. Windchill Dew Point Humidity Wind Precip. Elev Updated Type